createdAt,value
2023-01-20T00:01:33.884Z,99875.00
2023-01-20T00:04:35.479Z,99879.56
2023-01-20T00:07:37.063Z,99876.88
2023-01-20T00:10:38.563Z,99892.09
2023-01-20T00:13:40.125Z,99878.72
2023-01-20T00:16:41.789Z,99887.84
2023-01-20T00:19:43.324Z,99892.28
2023-01-20T00:22:44.920Z,99895.81
2023-01-20T00:25:46.465Z,99894.31
2023-01-20T00:28:49.328Z,99906.66
2023-01-20T00:31:50.880Z,99906.81
2023-01-20T00:34:52.372Z,99905.97
2023-01-20T00:37:53.852Z,99913.25
2023-01-20T00:40:55.560Z,99915.97
2023-01-20T00:43:57.059Z,99911.72
2023-01-20T00:46:59.159Z,99912.75
2023-01-20T00:50:00.666Z,99916.47
2023-01-20T00:53:02.133Z,99911.22
2023-01-20T00:56:04.499Z,99920.19
2023-01-20T00:59:08.272Z,99923.06
2023-01-20T01:02:09.839Z,99929.50
2023-01-20T01:05:11.548Z,99921.38
2023-01-20T01:08:13.708Z,99935.75
2023-01-20T01:11:15.329Z,99929.50
2023-01-20T01:14:16.842Z,99930.34
2023-01-20T01:17:18.385Z,99939.31
2023-01-20T01:20:20.093Z,99949.28
2023-01-20T01:23:21.801Z,99950.97
2023-01-20T01:26:23.426Z,99954.56
2023-01-20T01:29:25.038Z,99952.69
2023-01-20T01:32:27.214Z,99952.69
2023-01-20T01:35:28.710Z,99954.56
2023-01-20T01:38:30.209Z,99960.97
2023-01-20T01:41:31.976Z,99959.28
2023-01-20T01:44:36.143Z,99963.69
2023-01-20T01:47:40.030Z,99962.97
2023-01-20T01:50:54.256Z,99966.56
2023-01-20T01:54:02.603Z,99970.28
2023-01-20T01:57:07.408Z,99965.69
2023-01-20T02:00:09.642Z,99966.72
2023-01-20T02:03:14.567Z,99968.59
2023-01-20T02:06:17.358Z,99964.16
2023-01-20T02:09:19.764Z,99972.97
2023-01-20T02:12:22.665Z,99974.69
2023-01-20T02:15:32.294Z,99972.81
2023-01-20T02:18:57.774Z,99979.09
2023-01-20T02:22:18.010Z,99975.53
2023-01-20T02:25:31.543Z,99982.97
2023-01-20T02:29:05.466Z,99984.84
2023-01-20T02:32:26.765Z,99996.66
2023-01-20T02:35:45.544Z,100008.38
2023-01-20T02:39:05.435Z,100009.34
2023-01-20T02:42:13.139Z,100011.06
2023-01-20T02:45:17.798Z,100006.50
2023-01-20T02:48:52.882Z,100012.75
2023-01-20T02:52:01.894Z,100006.50
2023-01-20T02:55:10.387Z,100018.16
2023-01-20T02:58:39.529Z,100026.28
2023-01-20T03:02:10.310Z,100023.44
2023-01-20T03:05:20.719Z,100030.69
2023-01-20T03:08:26.910Z,100040.69
2023-01-20T03:11:31.858Z,100037.13
2023-01-20T03:14:33.519Z,100040.84
2023-01-20T03:17:35.326Z,100032.88
2023-01-20T03:20:36.924Z,100037.47
2023-01-20T03:23:42.646Z,100043.72
2023-01-20T03:26:44.217Z,100042.19
2023-01-20T03:29:45.712Z,100038.63
2023-01-20T03:32:49.393Z,100040.31
2023-01-20T03:35:52.200Z,100045.91
2023-01-20T03:38:55.631Z,100045.72
2023-01-20T03:42:28.831Z,100049.28
2023-01-20T03:45:39.145Z,100047.44
2023-01-20T03:48:49.657Z,100059.28
2023-01-20T03:52:18.587Z,100071.81
2023-01-20T03:55:26.557Z,100070.09
2023-01-20T03:58:33.099Z,100070.94
2023-01-20T04:01:37.177Z,100071.97
2023-01-20T04:04:42.311Z,100077.53
2023-01-20T04:07:46.000Z,100078.56
2023-01-20T04:10:50.180Z,100087.53
2023-01-20T04:13:51.948Z,100087.69
2023-01-20T04:16:57.060Z,100090.41
2023-01-20T04:20:04.357Z,100087.84
2023-01-20T04:23:08.153Z,100085.13
2023-01-20T04:26:09.660Z,100092.53
2023-01-20T04:29:13.099Z,100087.00
2023-01-20T04:32:15.165Z,100092.53
2023-01-20T04:35:19.269Z,100099.66
2023-01-20T04:38:20.885Z,100101.53
2023-01-20T04:41:22.432Z,100104.94
2023-01-20T04:44:23.902Z,100104.09
2023-01-20T04:47:25.450Z,100113.22
2023-01-20T04:50:27.020Z,100118.63
2023-01-20T04:53:28.502Z,100121.34
2023-01-20T04:56:30.052Z,100123.34
2023-01-20T04:59:31.628Z,100122.31
2023-01-20T05:02:33.305Z,100126.19
2023-01-20T05:05:34.860Z,100123.50
2023-01-20T05:08:36.466Z,100133.63
2023-01-20T05:11:38.056Z,100135.50
2023-01-20T05:14:39.536Z,100140.91
2023-01-20T05:17:41.064Z,100136.34
2023-01-20T05:20:45.771Z,100130.06
2023-01-20T05:23:47.252Z,100139.22
2023-01-20T05:26:48.739Z,100133.81
2023-01-20T05:29:50.237Z,100139.22
2023-01-20T05:32:52.203Z,100147.34
2023-01-20T05:35:55.915Z,100147.34
2023-01-20T05:38:57.569Z,100147.47
2023-01-20T05:41:59.033Z,100150.19
2023-01-20T05:45:00.513Z,100156.44
2023-01-20T05:48:03.087Z,100149.34
2023-01-20T05:51:04.768Z,100155.59
2023-01-20T05:54:06.521Z,100161.03
2023-01-20T05:57:08.162Z,100169.97
2023-01-20T06:00:10.841Z,100168.13
2023-01-20T06:03:12.344Z,100176.94
2023-01-20T06:06:18.313Z,100182.22
2023-01-20T06:09:19.895Z,100191.03
2023-01-20T06:12:21.747Z,100196.16
2023-01-20T06:15:25.230Z,100203.97
2023-01-20T06:18:27.212Z,100211.25
2023-01-20T06:21:28.767Z,100215.63
2023-01-20T06:24:30.457Z,100218.19
2023-01-20T06:27:31.933Z,100222.59
2023-01-20T06:30:33.688Z,100222.44
2023-01-20T06:33:35.435Z,100219.75
2023-01-20T06:36:36.937Z,100238.56
2023-01-20T06:39:38.784Z,100231.28
2023-01-20T06:42:40.391Z,100227.72
2023-01-20T06:45:41.924Z,100225.00
2023-01-20T06:48:44.714Z,100242.09
2023-01-20T06:51:47.789Z,100242.25
2023-01-20T06:54:49.392Z,100236.81
2023-01-20T06:57:50.852Z,100246.81
2023-01-20T07:00:53.264Z,100248.69
2023-01-20T07:03:55.082Z,100249.66
2023-01-20T07:06:56.587Z,100257.97
2023-01-20T07:09:58.072Z,100262.53
2023-01-20T07:12:59.509Z,100269.97
2023-01-20T07:16:01.012Z,100272.69
2023-01-20T07:19:02.867Z,100283.66
2023-01-20T07:22:04.316Z,100287.50
2023-01-20T07:25:06.073Z,100289.22
2023-01-20T07:28:07.784Z,100296.50
2023-01-20T07:31:10.816Z,100296.50
2023-01-20T07:34:12.312Z,100301.16
2023-01-20T07:37:13.914Z,100303.88
2023-01-20T07:40:15.530Z,100310.31
2023-01-20T07:43:17.065Z,100314.88
2023-01-20T07:46:19.781Z,100321.13
2023-01-20T07:49:21.350Z,100322.31
2023-01-20T07:52:22.835Z,100332.13
2023-01-20T07:55:25.259Z,100340.41
2023-01-20T07:58:26.894Z,100346.66
2023-01-20T08:01:31.088Z,100346.66
2023-01-20T08:04:33.487Z,100341.41
2023-01-20T08:07:35.051Z,100350.53
2023-01-20T08:10:37.698Z,100347.81
2023-01-20T08:13:40.405Z,100356.78
2023-01-20T08:16:42.020Z,100351.38
2023-01-20T08:19:46.253Z,100360.53
2023-01-20T08:22:47.739Z,100368.63
2023-01-20T08:25:51.637Z,100360.53
2023-01-20T08:28:53.720Z,100360.53
2023-01-20T08:31:55.309Z,100364.22
2023-01-20T08:34:56.868Z,100365.09
2023-01-20T08:37:58.339Z,100367.94
2023-01-20T08:41:00.159Z,100366.06
2023-01-20T08:44:04.533Z,100377.75
2023-01-20T08:47:06.214Z,100376.06
2023-01-20T08:50:08.452Z,100386.03
2023-01-20T08:53:09.916Z,100393.31
2023-01-20T08:56:12.579Z,100394.31
2023-01-20T08:59:14.059Z,100405.13
2023-01-20T09:02:15.559Z,100408.84
2023-01-20T09:05:22.206Z,100414.28
2023-01-20T09:08:26.857Z,100421.56
2023-01-20T09:11:28.454Z,100419.69
2023-01-20T09:14:29.979Z,100425.09
2023-01-20T09:17:31.444Z,100430.50
2023-01-20T09:20:33.201Z,100432.22
2023-01-20T09:23:36.630Z,100435.94
2023-01-20T09:26:41.054Z,100434.91
2023-01-20T09:29:42.523Z,100430.50
2023-01-20T09:32:44.029Z,100430.50
2023-01-20T09:35:45.521Z,100432.22
2023-01-20T09:39:05.496Z,100445.75
2023-01-20T09:42:54.677Z,100458.28
2023-01-20T09:46:14.238Z,100451.16
2023-01-20T09:49:58.415Z,100453.88
2023-01-20T09:53:07.845Z,100459.44
2023-01-20T09:56:14.085Z,100458.56
2023-01-20T09:59:20.638Z,100467.56
2023-01-20T10:02:25.212Z,100471.13
2023-01-20T10:05:33.720Z,100467.56
2023-01-20T10:09:04.538Z,100474.69
2023-01-20T10:12:51.901Z,100474.53
2023-01-20T10:15:55.897Z,100479.06
2023-01-20T10:19:02.915Z,100479.94
2023-01-20T10:22:08.348Z,100479.94
2023-01-20T10:25:18.341Z,100474.53
2023-01-20T10:28:32.137Z,100478.09
2023-01-20T10:31:42.854Z,100479.94
2023-01-20T10:34:51.162Z,100479.94
2023-01-20T10:37:55.594Z,100479.06
2023-01-20T10:41:07.959Z,100475.38
2023-01-20T10:44:14.689Z,100480.94
2023-01-20T10:47:34.698Z,100479.38
2023-01-20T10:50:50.747Z,100477.38
2023-01-20T10:54:23.311Z,100479.06
2023-01-20T10:57:25.699Z,100486.22
2023-01-20T11:00:31.161Z,100486.03
2023-01-20T11:03:37.158Z,100485.91
2023-01-20T11:06:39.100Z,100492.16
2023-01-20T11:09:42.200Z,100492.16
2023-01-20T11:12:47.513Z,100498.44
2023-01-20T11:15:53.698Z,100508.28
2023-01-20T11:19:03.824Z,100511.81
2023-01-20T11:22:33.301Z,100512.69
2023-01-20T11:25:34.781Z,100521.81
2023-01-20T11:29:03.474Z,100524.34
2023-01-20T11:32:05.191Z,100526.38
2023-01-20T11:35:18.911Z,100532.66
2023-01-20T11:38:25.596Z,100530.78
2023-01-20T11:41:29.700Z,100538.78
2023-01-20T11:44:31.164Z,100537.88
2023-01-20T11:47:37.439Z,100550.28
2023-01-20T11:50:50.357Z,100550.88
2023-01-20T11:54:07.208Z,100542.75
2023-01-20T11:57:17.153Z,100553.59
2023-01-20T12:00:18.633Z,100560.00
2023-01-20T12:03:42.243Z,100560.88
2023-01-20T12:06:56.005Z,100565.28
2023-01-20T12:10:32.443Z,100568.81
2023-01-20T12:13:59.771Z,100572.53
2023-01-20T12:17:14.405Z,100566.38
2023-01-20T12:20:54.443Z,100568.13
2023-01-20T12:24:08.715Z,100567.28
2023-01-20T12:27:20.502Z,100569.97
2023-01-20T12:30:30.890Z,100571.94
2023-01-20T12:33:38.865Z,100571.94
2023-01-20T12:36:46.549Z,100587.22
2023-01-20T12:40:25.709Z,100586.34
2023-01-20T12:43:45.619Z,100582.94
2023-01-20T12:47:17.136Z,100601.59
2023-01-20T12:50:37.001Z,100597.91
2023-01-20T12:54:05.749Z,100598.63
2023-01-20T12:57:45.355Z,100595.78
2023-01-20T13:01:05.052Z,100602.88
2023-01-20T13:04:42.150Z,100602.03
2023-01-20T13:08:24.544Z,100603.75
2023-01-20T13:12:01.133Z,100603.75
2023-01-20T13:15:14.438Z,100613.72
2023-01-20T13:18:23.869Z,100608.28
2023-01-20T13:21:25.330Z,100618.44
2023-01-20T13:24:29.585Z,100605.75
2023-01-20T13:27:37.345Z,100622.72
2023-01-20T13:30:47.798Z,100617.28
2023-01-20T13:33:49.510Z,100625.44
2023-01-20T13:37:10.128Z,100628.81
2023-01-20T13:40:30.251Z,100627.81
2023-01-20T13:43:31.688Z,100638.66
2023-01-20T13:46:35.863Z,100639.38
2023-01-20T13:49:46.444Z,100635.66
2023-01-20T13:52:50.868Z,100643.78
2023-01-20T13:55:54.831Z,100648.34
2023-01-20T13:58:59.768Z,100649.19
2023-01-20T14:02:17.070Z,100650.03
2023-01-20T14:05:28.511Z,100658.03
2023-01-20T14:08:38.907Z,100661.03
2023-01-20T14:11:52.747Z,100656.47
2023-01-20T14:14:54.754Z,100664.72
2023-01-20T14:17:58.251Z,100665.56
2023-01-20T14:21:15.763Z,100664.72
2023-01-20T14:24:30.313Z,100677.28
2023-01-20T14:27:35.522Z,100682.72
2023-01-20T14:30:37.194Z,100687.25
2023-01-20T14:33:53.451Z,100688.66
2023-01-20T14:36:57.598Z,100689.69
2023-01-20T14:40:11.352Z,100695.09
2023-01-20T14:43:22.452Z,100698.66
2023-01-20T14:46:24.977Z,100699.81
2023-01-20T14:49:32.744Z,100706.06
2023-01-20T14:52:34.304Z,100718.06
2023-01-20T14:55:40.743Z,100719.06
2023-01-20T14:58:47.395Z,100730.75
2023-01-20T15:01:53.168Z,100732.75
2023-01-20T15:04:55.343Z,100736.59
2023-01-20T15:08:13.180Z,100743.03
2023-01-20T15:11:16.318Z,100745.13
2023-01-20T15:14:17.864Z,100756.97
2023-01-20T15:17:20.482Z,100756.38
2023-01-20T15:20:31.661Z,100758.09
2023-01-20T15:23:35.562Z,100767.19
2023-01-20T15:26:38.700Z,100776.34
2023-01-20T15:29:40.712Z,100786.16
2023-01-20T15:32:42.251Z,100787.00
2023-01-20T15:35:43.818Z,100802.28
2023-01-20T15:38:45.446Z,100803.13
2023-01-20T15:41:48.668Z,100805.84
2023-01-20T15:44:50.262Z,100814.81
2023-01-20T15:47:52.732Z,100821.06
2023-01-20T15:50:54.307Z,100823.53
2023-01-20T15:53:55.804Z,100824.41
2023-01-20T15:56:57.285Z,100836.78
2023-01-20T15:59:58.761Z,100841.44
2023-01-20T16:03:00.287Z,100843.56
2023-01-20T16:06:01.989Z,100843.72
2023-01-20T16:09:24.748Z,100850.13
2023-01-20T16:12:26.218Z,100852.28
2023-01-20T16:15:27.676Z,100858.00
2023-01-20T16:18:30.183Z,100866.41
2023-01-20T16:21:31.741Z,100866.88
2023-01-20T16:24:33.207Z,100875.56
2023-01-20T16:27:34.885Z,100871.41
2023-01-20T16:30:36.345Z,100873.88
2023-01-20T16:33:37.983Z,100875.28
2023-01-20T16:36:39.578Z,100886.69
2023-01-20T16:39:41.081Z,100888.97
2023-01-20T16:42:42.650Z,100897.50
2023-01-20T16:45:47.151Z,100907.94
2023-01-20T16:48:49.146Z,100903.34
2023-01-20T16:51:50.673Z,100912.94
2023-01-20T16:54:52.200Z,100910.78
2023-01-20T16:57:54.174Z,100918.63
2023-01-20T17:00:55.669Z,100918.34
2023-01-20T17:04:02.228Z,100926.19
2023-01-20T17:07:03.650Z,100923.91
2023-01-20T17:10:05.736Z,100930.16
2023-01-20T17:13:07.250Z,100936.44
2023-01-20T17:16:08.728Z,100945.44
2023-01-20T17:19:10.266Z,100948.00
2023-01-20T17:22:11.859Z,100947.88
2023-01-20T17:25:17.954Z,100963.97
2023-01-20T17:28:19.585Z,100959.25
2023-01-20T17:31:21.383Z,100972.69
2023-01-20T17:34:23.056Z,100978.97
2023-01-20T17:37:24.589Z,100980.53
2023-01-20T17:40:26.063Z,100978.66
2023-01-20T17:43:38.496Z,100995.66
2023-01-20T17:46:40.047Z,101002.94
2023-01-20T17:49:41.749Z,100999.38
2023-01-20T17:52:43.332Z,101001.06
2023-01-20T17:55:44.791Z,101014.50
2023-01-20T17:58:47.468Z,101018.06
2023-01-20T18:01:52.296Z,101021.50
2023-01-20T18:04:53.810Z,101030.31
2023-01-20T18:07:55.339Z,101032.03
2023-01-20T18:11:20.316Z,101028.31
2023-01-20T18:14:21.940Z,101046.31
2023-01-20T18:17:23.506Z,101048.03
2023-01-20T18:20:25.089Z,101050.75
2023-01-20T18:23:26.593Z,101047.19
2023-01-20T18:26:30.541Z,101054.28
2023-01-20T18:29:35.283Z,101057.88
2023-01-20T18:32:36.740Z,101060.56
2023-01-20T18:35:38.214Z,101058.88
2023-01-20T18:38:45.597Z,101076.16
2023-01-20T18:41:48.318Z,101075.00
2023-01-20T18:44:49.778Z,101071.41
2023-01-20T18:47:51.252Z,101083.28
2023-01-20T18:50:59.645Z,101086.72
2023-01-20T18:54:07.369Z,101095.69
2023-01-20T18:57:09.252Z,101093.13
2023-01-20T19:00:11.323Z,101097.56
2023-01-20T19:03:12.866Z,101094.97
2023-01-20T19:06:22.720Z,101101.25
2023-01-20T19:09:24.244Z,101098.53
2023-01-20T19:12:25.744Z,101112.09
2023-01-20T19:15:27.337Z,101114.81
2023-01-20T19:18:28.846Z,101113.97
2023-01-20T19:21:32.396Z,101120.22
2023-01-20T19:24:34.011Z,101122.81
2023-01-20T19:27:35.540Z,101129.94
2023-01-20T19:30:38.293Z,101130.09
2023-01-20T19:33:40.488Z,101140.78
2023-01-20T19:36:41.996Z,101142.66
2023-01-20T19:39:43.490Z,101143.38
2023-01-20T19:42:48.673Z,101149.81
2023-01-20T19:45:50.132Z,101150.78
2023-01-20T19:48:53.452Z,101158.78
2023-01-20T19:51:54.941Z,101152.53
2023-01-20T19:54:56.758Z,101160.66
2023-01-20T19:57:58.226Z,101161.63
2023-01-20T20:01:14.303Z,101168.78
2023-01-20T20:04:20.304Z,101171.63
2023-01-20T20:07:21.771Z,101183.34
2023-01-20T20:10:23.263Z,101185.06
2023-01-20T20:13:24.842Z,101187.78
2023-01-20T20:16:28.759Z,101185.06
2023-01-20T20:19:30.238Z,101192.47
2023-01-20T20:22:31.764Z,101196.03
2023-01-20T20:25:33.218Z,101200.63
2023-01-20T20:28:34.675Z,101204.31
2023-01-20T20:31:37.617Z,101213.31
2023-01-20T20:34:39.761Z,101224.16
2023-01-20T20:37:42.004Z,101223.16
2023-01-20T20:40:43.477Z,101216.03
2023-01-20T20:43:45.120Z,101214.19
2023-01-20T20:46:46.751Z,101226.00
2023-01-20T20:49:48.283Z,101228.00
2023-01-20T20:52:51.003Z,101227.00
2023-01-20T20:55:55.214Z,101237.72
2023-01-20T20:59:02.874Z,101236.84
2023-01-20T21:02:05.105Z,101252.25
2023-01-20T21:05:07.587Z,101253.13
2023-01-20T21:08:09.057Z,101253.28
2023-01-20T21:11:12.816Z,101258.69
2023-01-20T21:14:14.385Z,101265.97
2023-01-20T21:17:16.257Z,101267.81
2023-01-20T21:20:18.048Z,101269.69
2023-01-20T21:23:19.700Z,101278.66
2023-01-20T21:26:22.758Z,101283.09
2023-01-20T21:29:26.116Z,101287.81
2023-01-20T21:32:27.603Z,101286.78
2023-01-20T21:35:29.089Z,101288.66
2023-01-20T21:38:31.416Z,101286.94
2023-01-20T21:41:32.873Z,101295.94
2023-01-20T21:44:36.236Z,101302.50
2023-01-20T21:47:37.805Z,101300.78
2023-01-20T21:50:58.114Z,101305.31
2023-01-20T21:53:59.597Z,101304.63
2023-01-20T21:57:01.893Z,101320.91
2023-01-20T22:00:06.244Z,101312.88
2023-01-20T22:03:13.496Z,101317.59
2023-01-20T22:06:15.007Z,101317.88
2023-01-20T22:09:16.514Z,101325.16
2023-01-20T22:12:18.048Z,101324.41
2023-01-20T22:15:19.542Z,101335.25
2023-01-20T22:18:21.007Z,101335.38
2023-01-20T22:21:22.668Z,101342.66
2023-01-20T22:24:24.174Z,101344.53
2023-01-20T22:27:25.677Z,101350.06
2023-01-20T22:30:27.391Z,101347.50
2023-01-20T22:33:28.868Z,101355.75
2023-01-20T22:36:30.411Z,101354.91
2023-01-20T22:39:31.930Z,101361.34
2023-01-20T22:42:34.035Z,101356.88
2023-01-20T22:45:35.571Z,101367.72
2023-01-20T22:48:37.070Z,101366.16
2023-01-20T22:51:38.662Z,101367.00
2023-01-20T22:54:40.139Z,101378.00
2023-01-20T22:57:41.601Z,101371.72
2023-01-20T23:00:43.660Z,101384.53
2023-01-20T23:03:45.849Z,101385.50
2023-01-20T23:06:47.317Z,101387.53
2023-01-20T23:09:49.896Z,101389.34
2023-01-20T23:12:51.836Z,101394.75
2023-01-20T23:15:53.315Z,101400.19
2023-01-20T23:18:54.798Z,101403.91
2023-01-20T23:21:56.440Z,101400.47
2023-01-20T23:24:57.897Z,101404.91
2023-01-20T23:27:59.432Z,101408.59
2023-01-20T23:31:08.800Z,101410.44
2023-01-20T23:34:10.282Z,101414.28
2023-01-20T23:37:11.739Z,101423.41
2023-01-20T23:40:13.237Z,101430.66
2023-01-20T23:43:15.125Z,101435.22
2023-01-20T23:46:16.706Z,101439.78
2023-01-20T23:49:18.171Z,101441.66
2023-01-20T23:52:21.507Z,101447.06
2023-01-20T23:55:22.993Z,101460.63
2023-01-20T23:58:24.507Z,101457.91
